createdAt,value
2022-12-16T00:01:18.740Z,21.43
2022-12-16T00:03:52.959Z,21.42
2022-12-16T00:06:22.594Z,21.42
2022-12-16T00:08:49.248Z,21.42
2022-12-16T00:11:15.905Z,21.41
2022-12-16T00:13:42.546Z,21.39
2022-12-16T00:16:16.291Z,21.39
2022-12-16T00:18:43.319Z,21.37
2022-12-16T00:21:14.161Z,21.35
2022-12-16T00:23:44.411Z,21.33
2022-12-16T00:26:12.060Z,21.31
2022-12-16T00:28:39.769Z,21.30
2022-12-16T00:31:15.778Z,21.27
2022-12-16T00:33:42.505Z,21.25
2022-12-16T00:36:09.365Z,21.23
2022-12-16T00:38:35.976Z,21.20
2022-12-16T00:41:10.329Z,21.19
2022-12-16T00:43:37.099Z,21.17
2022-12-16T00:46:03.886Z,21.15
2022-12-16T00:48:30.531Z,21.12
2022-12-16T00:50:57.176Z,21.10
2022-12-16T00:53:24.800Z,21.07
2022-12-16T00:55:52.089Z,21.04
2022-12-16T00:58:18.779Z,21.01
2022-12-16T01:00:45.482Z,20.97
2022-12-16T01:03:15.574Z,20.95
2022-12-16T01:05:46.214Z,20.91
2022-12-16T01:08:12.945Z,20.88
2022-12-16T01:10:39.618Z,20.85
2022-12-16T01:13:06.234Z,20.81
2022-12-16T01:15:33.156Z,20.78
2022-12-16T01:17:59.823Z,20.75
2022-12-16T01:20:26.486Z,20.73
2022-12-16T01:22:53.093Z,20.70
2022-12-16T01:25:21.580Z,20.66
2022-12-16T01:27:48.402Z,20.63
2022-12-16T01:30:15.132Z,20.58
2022-12-16T01:32:41.812Z,20.54
2022-12-16T01:35:29.391Z,20.51
2022-12-16T01:37:55.358Z,20.47
2022-12-16T01:40:23.163Z,20.40
2022-12-16T01:42:50.067Z,20.37
2022-12-16T01:45:23.597Z,20.31
2022-12-16T01:47:51.247Z,20.23
2022-12-16T01:50:19.387Z,20.18
2022-12-16T01:52:48.337Z,20.15
2022-12-16T01:55:47.168Z,20.13
2022-12-16T01:58:15.981Z,20.10
2022-12-16T02:00:42.728Z,20.04
2022-12-16T02:03:09.813Z,20.00
2022-12-16T02:05:38.727Z,19.93
2022-12-16T02:08:11.416Z,19.90
2022-12-16T02:10:44.136Z,19.86
2022-12-16T02:13:19.929Z,19.79
2022-12-16T02:15:52.440Z,19.77
2022-12-16T02:18:33.574Z,19.72
2022-12-16T02:21:17.067Z,19.69
2022-12-16T02:23:43.964Z,19.67
2022-12-16T02:26:16.628Z,19.64
2022-12-16T02:29:04.474Z,19.58
2022-12-16T02:31:41.959Z,19.54
2022-12-16T02:34:12.440Z,19.52
2022-12-16T02:36:49.032Z,19.49
2022-12-16T02:39:33.976Z,19.46
2022-12-16T02:42:11.697Z,19.42
2022-12-16T02:44:41.352Z,19.38
2022-12-16T02:47:07.940Z,19.36
2022-12-16T02:49:34.591Z,19.32
2022-12-16T02:52:02.050Z,19.31
2022-12-16T02:54:29.069Z,19.27
2022-12-16T02:57:14.316Z,19.24
2022-12-16T03:00:07.040Z,19.21
2022-12-16T03:03:00.082Z,19.18
2022-12-16T03:05:29.770Z,19.14
2022-12-16T03:07:58.815Z,19.14
2022-12-16T03:10:28.097Z,19.11
2022-12-16T03:12:56.666Z,19.07
2022-12-16T03:15:25.925Z,19.04
2022-12-16T03:17:54.051Z,19.00
2022-12-16T03:20:31.184Z,18.96
2022-12-16T03:23:00.166Z,18.93
2022-12-16T03:25:28.347Z,18.89
2022-12-16T03:27:59.288Z,18.84
2022-12-16T03:30:29.906Z,18.82
2022-12-16T03:33:02.584Z,18.80
2022-12-16T03:35:33.750Z,18.75
2022-12-16T03:38:02.035Z,18.69
2022-12-16T03:40:29.129Z,18.66
2022-12-16T03:42:57.227Z,18.61
2022-12-16T03:45:26.422Z,18.56
2022-12-16T03:47:53.682Z,18.56
2022-12-16T03:50:22.213Z,18.52
2022-12-16T03:52:48.802Z,18.51
2022-12-16T03:55:15.541Z,18.45
2022-12-16T03:57:42.139Z,18.42
2022-12-16T04:00:09.629Z,18.38
2022-12-16T04:02:36.453Z,18.35
2022-12-16T04:05:03.311Z,18.34
2022-12-16T04:07:30.043Z,18.31
2022-12-16T04:09:56.641Z,18.26
2022-12-16T04:12:41.712Z,18.22
2022-12-16T04:15:29.136Z,18.19
2022-12-16T04:18:34.126Z,18.16
2022-12-16T04:21:20.035Z,18.14
2022-12-16T04:24:07.568Z,18.11
2022-12-16T04:26:57.277Z,18.08
2022-12-16T04:29:24.302Z,18.06
2022-12-16T04:31:51.726Z,18.04
2022-12-16T04:34:27.866Z,18.01
2022-12-16T04:37:14.371Z,17.97
2022-12-16T04:39:59.296Z,17.95
2022-12-16T04:42:44.408Z,17.90
2022-12-16T04:45:30.073Z,17.88
2022-12-16T04:48:15.236Z,17.82
2022-12-16T04:51:01.988Z,17.79
2022-12-16T04:53:47.250Z,17.80
2022-12-16T04:56:32.561Z,17.77
2022-12-16T04:59:17.851Z,17.74
2022-12-16T05:02:03.655Z,17.74
2022-12-16T05:04:48.967Z,17.72
2022-12-16T05:07:41.115Z,17.69
2022-12-16T05:10:26.379Z,17.65
2022-12-16T05:13:14.615Z,17.63
2022-12-16T05:16:00.305Z,17.60
2022-12-16T05:18:45.445Z,17.58
2022-12-16T05:21:31.261Z,17.57
2022-12-16T05:24:16.477Z,17.58
2022-12-16T05:27:01.776Z,17.59
2022-12-16T05:29:46.852Z,17.62
2022-12-16T05:32:31.984Z,17.66
2022-12-16T05:35:17.121Z,17.69
2022-12-16T05:38:03.788Z,17.73
2022-12-16T05:40:48.889Z,17.75
2022-12-16T05:43:34.309Z,17.78
2022-12-16T05:46:19.672Z,17.82
2022-12-16T05:49:04.917Z,17.86
2022-12-16T05:51:50.018Z,17.91
2022-12-16T05:54:35.212Z,17.94
2022-12-16T05:57:20.513Z,18.00
2022-12-16T06:00:05.555Z,18.06
2022-12-16T06:02:50.827Z,18.10
2022-12-16T06:05:37.114Z,18.14
2022-12-16T06:08:36.045Z,18.19
2022-12-16T06:11:21.041Z,18.25
2022-12-16T06:14:05.953Z,18.29
2022-12-16T06:16:52.978Z,18.34
2022-12-16T06:19:38.302Z,18.39
2022-12-16T06:22:23.403Z,18.44
2022-12-16T06:25:08.507Z,18.49
2022-12-16T06:27:53.642Z,18.53
2022-12-16T06:30:38.835Z,18.58
2022-12-16T06:33:24.012Z,18.63
2022-12-16T06:36:08.937Z,18.67
2022-12-16T06:38:54.093Z,18.72
2022-12-16T06:41:39.206Z,18.77
2022-12-16T06:44:24.381Z,18.81
2022-12-16T06:47:09.481Z,18.85
2022-12-16T06:49:54.634Z,18.89
2022-12-16T06:52:40.153Z,18.95
2022-12-16T06:55:45.037Z,18.98
2022-12-16T06:58:30.386Z,19.02
2022-12-16T07:01:15.668Z,19.07
2022-12-16T07:04:00.828Z,19.10
2022-12-16T07:06:46.494Z,19.15
2022-12-16T07:09:31.489Z,19.20
2022-12-16T07:12:38.245Z,19.24
2022-12-16T07:15:23.782Z,19.27
2022-12-16T07:18:17.707Z,19.31
2022-12-16T07:21:18.080Z,19.34
2022-12-16T07:24:03.372Z,19.39
2022-12-16T07:26:49.009Z,19.41
2022-12-16T07:29:34.203Z,19.45
2022-12-16T07:32:19.493Z,19.48
2022-12-16T07:35:04.688Z,19.51
2022-12-16T07:37:50.561Z,19.55
2022-12-16T07:40:36.436Z,19.59
2022-12-16T07:43:21.829Z,19.62
2022-12-16T07:46:07.365Z,19.65
2022-12-16T07:48:52.798Z,19.68
2022-12-16T07:51:38.360Z,19.71
2022-12-16T07:54:25.679Z,19.73
2022-12-16T07:57:10.790Z,19.76
2022-12-16T07:59:55.794Z,19.78
2022-12-16T08:02:41.285Z,19.78
2022-12-16T08:05:26.811Z,19.80
2022-12-16T08:08:14.494Z,19.80
2022-12-16T08:11:00.194Z,19.80
2022-12-16T08:13:45.239Z,19.80
2022-12-16T08:16:30.458Z,19.81
2022-12-16T08:19:15.471Z,19.81
2022-12-16T08:22:00.540Z,19.80
2022-12-16T08:24:51.264Z,19.80
2022-12-16T08:27:45.124Z,19.80
2022-12-16T08:30:30.735Z,19.77
2022-12-16T08:33:19.579Z,19.77
2022-12-16T08:36:05.734Z,19.78
2022-12-16T08:38:50.748Z,19.79
2022-12-16T08:41:36.352Z,19.79
2022-12-16T08:44:21.443Z,19.80
2022-12-16T08:47:06.658Z,19.81
2022-12-16T08:49:54.779Z,19.41
2022-12-16T08:52:43.181Z,19.47
2022-12-16T08:55:29.941Z,19.57
2022-12-16T08:58:15.518Z,19.60
2022-12-16T09:01:06.741Z,19.61
2022-12-16T09:03:52.880Z,19.66
2022-12-16T09:06:40.591Z,19.67
2022-12-16T09:09:26.671Z,19.70
2022-12-16T09:12:11.774Z,19.71
2022-12-16T09:14:56.922Z,19.74
2022-12-16T09:17:50.080Z,19.76
2022-12-16T09:20:36.461Z,19.78
2022-12-16T09:23:21.923Z,19.78
2022-12-16T09:26:07.101Z,19.80
2022-12-16T09:28:52.302Z,19.82
2022-12-16T09:31:38.754Z,19.83
2022-12-16T09:34:28.221Z,19.85
2022-12-16T09:37:13.441Z,19.88
2022-12-16T09:40:15.893Z,19.90
2022-12-16T09:43:10.024Z,19.92
2022-12-16T09:46:00.611Z,19.93
2022-12-16T09:49:17.896Z,19.96
2022-12-16T09:52:04.891Z,19.98
2022-12-16T09:54:52.837Z,20.01
2022-12-16T09:57:51.355Z,20.06
2022-12-16T10:00:41.495Z,20.09
2022-12-16T10:03:52.986Z,20.13
2022-12-16T10:07:01.325Z,20.14
2022-12-16T10:09:49.433Z,20.17
2022-12-16T10:12:53.368Z,20.19
2022-12-16T10:16:04.691Z,20.22
2022-12-16T10:19:01.881Z,20.26
2022-12-16T10:21:51.863Z,20.30
2022-12-16T10:24:40.030Z,20.35
2022-12-16T10:27:34.616Z,20.41
2022-12-16T10:30:20.314Z,20.43
2022-12-16T10:33:08.695Z,20.45
2022-12-16T10:36:04.409Z,20.46
2022-12-16T10:39:01.234Z,20.48
2022-12-16T10:41:53.543Z,20.49
2022-12-16T10:44:56.596Z,20.50
2022-12-16T10:47:52.040Z,20.54
2022-12-16T10:50:37.033Z,20.52
2022-12-16T10:53:24.603Z,20.52
2022-12-16T10:56:16.379Z,20.53
2022-12-16T10:59:05.431Z,20.53
2022-12-16T11:01:50.780Z,20.53
2022-12-16T11:04:56.397Z,20.51
2022-12-16T11:08:02.135Z,20.51
2022-12-16T11:10:47.502Z,20.50
2022-12-16T11:13:36.096Z,20.50
2022-12-16T11:16:28.778Z,20.49
2022-12-16T11:19:14.052Z,20.50
2022-12-16T11:21:59.227Z,20.48
2022-12-16T11:24:44.763Z,20.47
2022-12-16T11:30:41.808Z,20.47
2022-12-16T11:33:33.418Z,20.44
2022-12-16T11:36:39.155Z,20.44
2022-12-16T11:39:25.854Z,20.42
2022-12-16T11:42:13.041Z,20.40
2022-12-16T11:44:59.998Z,20.38
2022-12-16T11:47:49.564Z,20.36
2022-12-16T11:50:36.494Z,20.35
2022-12-16T11:53:24.063Z,20.31
2022-12-16T11:56:15.988Z,20.30
2022-12-16T11:59:01.814Z,20.29
2022-12-16T12:01:49.508Z,20.25
2022-12-16T12:04:34.656Z,20.23
2022-12-16T12:07:48.727Z,20.22
2022-12-16T12:11:02.284Z,20.18
2022-12-16T12:13:50.521Z,20.15
2022-12-16T12:16:50.391Z,20.14
2022-12-16T12:19:38.232Z,20.11
2022-12-16T12:22:50.205Z,20.09
2022-12-16T12:25:52.048Z,20.05
2022-12-16T12:28:52.325Z,20.02
2022-12-16T12:31:40.621Z,20.00
2022-12-16T12:34:36.401Z,19.97
2022-12-16T12:37:24.539Z,19.94
2022-12-16T12:40:32.796Z,19.91
2022-12-16T12:43:20.281Z,19.87
2022-12-16T12:46:24.328Z,19.85
2022-12-16T12:49:27.399Z,19.80
2022-12-16T12:52:24.457Z,19.78
2022-12-16T12:55:19.090Z,19.74
2022-12-16T12:58:10.779Z,19.66
2022-12-16T13:01:01.850Z,19.60
2022-12-16T13:03:53.249Z,19.56
2022-12-16T13:06:39.931Z,19.52
2022-12-16T13:09:45.250Z,19.48
2022-12-16T13:12:30.451Z,19.44
2022-12-16T13:15:26.058Z,19.41
2022-12-16T13:18:20.295Z,19.39
2022-12-16T13:21:23.955Z,19.35
2022-12-16T13:24:09.105Z,19.31
2022-12-16T13:27:10.992Z,19.29
2022-12-16T13:29:56.332Z,19.28
2022-12-16T13:32:44.442Z,19.25
2022-12-16T13:35:29.701Z,19.22
2022-12-16T13:38:16.284Z,19.21
2022-12-16T13:41:08.890Z,19.15
2022-12-16T13:44:13.324Z,19.12
2022-12-16T13:46:58.549Z,19.08
2022-12-16T13:49:55.942Z,19.06
2022-12-16T13:53:03.124Z,19.01
2022-12-16T13:55:53.788Z,18.96
2022-12-16T13:58:48.036Z,18.91
2022-12-16T14:01:35.999Z,18.88
2022-12-16T14:04:21.282Z,18.85
2022-12-16T14:07:07.800Z,18.82
2022-12-16T14:09:54.573Z,18.78
2022-12-16T14:12:53.206Z,18.75
2022-12-16T14:15:59.959Z,18.72
2022-12-16T14:18:48.260Z,18.68
2022-12-16T14:21:37.926Z,18.63
2022-12-16T14:24:30.769Z,18.60
2022-12-16T14:27:15.667Z,18.57
2022-12-16T14:30:02.233Z,18.54
2022-12-16T14:32:51.895Z,18.49
2022-12-16T14:35:44.199Z,18.47
2022-12-16T14:38:46.671Z,18.43
2022-12-16T14:41:32.032Z,18.40
2022-12-16T14:44:17.265Z,18.36
2022-12-16T14:47:07.542Z,18.32
2022-12-16T14:49:52.449Z,18.27
2022-12-16T14:52:42.534Z,18.22
2022-12-16T14:55:50.855Z,18.16
2022-12-16T14:58:37.527Z,18.12
2022-12-16T15:01:34.042Z,18.09
2022-12-16T15:04:21.647Z,18.05
2022-12-16T15:07:08.057Z,17.99
2022-12-16T15:09:58.271Z,17.95
2022-12-16T15:12:46.911Z,17.92
2022-12-16T15:15:34.618Z,17.90
2022-12-16T15:18:20.301Z,17.85
2022-12-16T15:21:26.148Z,17.82
2022-12-16T15:24:11.726Z,17.79
2022-12-16T15:26:57.394Z,17.76
2022-12-16T15:30:02.703Z,17.71
2022-12-16T15:32:48.810Z,17.67
2022-12-16T15:35:50.921Z,17.65
2022-12-16T15:38:49.729Z,17.61
2022-12-16T15:41:55.036Z,17.58
2022-12-16T15:44:42.194Z,17.55
2022-12-16T15:47:47.974Z,17.51
2022-12-16T15:50:33.933Z,17.48
2022-12-16T15:53:35.231Z,17.45
2022-12-16T15:56:20.710Z,17.40
2022-12-16T15:59:06.198Z,17.37
2022-12-16T16:02:04.311Z,17.34
2022-12-16T16:04:50.039Z,17.30
2022-12-16T16:07:45.605Z,17.27
2022-12-16T16:10:33.909Z,17.25
2022-12-16T16:13:19.137Z,17.21
2022-12-16T16:16:04.221Z,17.19
2022-12-16T16:18:49.280Z,17.16
2022-12-16T16:21:34.770Z,17.12
2022-12-16T16:24:19.839Z,17.11
2022-12-16T16:27:04.883Z,17.07
2022-12-16T16:29:49.880Z,17.05
2022-12-16T16:32:34.972Z,17.02
2022-12-16T16:35:20.493Z,16.99
2022-12-16T16:38:05.681Z,16.97
2022-12-16T16:40:50.749Z,16.95
2022-12-16T16:43:36.672Z,16.92
2022-12-16T16:46:24.789Z,16.89
2022-12-16T16:49:09.764Z,16.86
2022-12-16T16:51:54.994Z,16.84
2022-12-16T16:54:40.041Z,16.82
2022-12-16T16:57:27.576Z,16.81
2022-12-16T17:00:12.605Z,16.78
2022-12-16T17:02:57.806Z,16.74
2022-12-16T17:06:03.277Z,16.74
2022-12-16T17:08:48.593Z,16.70
2022-12-16T17:11:40.835Z,16.69
2022-12-16T17:14:30.498Z,16.65
2022-12-16T17:17:15.595Z,16.63
2022-12-16T17:20:00.965Z,16.61
2022-12-16T17:22:46.335Z,16.58
2022-12-16T17:25:32.064Z,16.55
2022-12-16T17:28:17.712Z,16.54
2022-12-16T17:31:02.740Z,16.51
2022-12-16T17:33:47.959Z,16.49
2022-12-16T17:36:34.534Z,16.46
2022-12-16T17:39:20.135Z,16.44
2022-12-16T17:42:05.515Z,16.41
2022-12-16T17:44:50.547Z,16.39
2022-12-16T17:47:35.555Z,16.38
2022-12-16T17:50:21.068Z,16.36
2022-12-16T17:53:06.084Z,16.32
2022-12-16T17:55:52.139Z,16.31
2022-12-16T17:58:37.174Z,16.29
2022-12-16T18:01:24.093Z,16.27
2022-12-16T18:04:09.534Z,16.26
2022-12-16T18:06:54.662Z,16.22
2022-12-16T18:09:39.728Z,16.21
2022-12-16T18:12:24.736Z,16.17
2022-12-16T18:15:09.887Z,16.15
2022-12-16T18:17:54.904Z,16.13
2022-12-16T18:20:39.916Z,16.12
2022-12-16T18:23:24.999Z,16.09
2022-12-16T18:26:16.685Z,16.06
2022-12-16T18:29:01.817Z,16.04
2022-12-16T18:31:46.890Z,16.01
2022-12-16T18:34:34.095Z,16.00
2022-12-16T18:37:19.216Z,15.98
2022-12-16T18:40:04.317Z,15.96
2022-12-16T18:42:49.495Z,15.94
2022-12-16T18:45:34.667Z,15.92
2022-12-16T18:48:19.682Z,15.90
2022-12-16T18:51:11.365Z,15.88
2022-12-16T18:53:56.378Z,15.87
2022-12-16T18:56:41.505Z,15.84
2022-12-16T18:59:26.741Z,15.83
2022-12-16T19:02:11.937Z,15.80
2022-12-16T19:04:57.563Z,15.78
2022-12-16T19:07:45.106Z,15.77
2022-12-16T19:10:30.111Z,15.75
2022-12-16T19:13:15.613Z,15.73
2022-12-16T19:16:20.540Z,15.71
2022-12-16T19:19:05.851Z,15.68
2022-12-16T19:21:56.162Z,15.66
2022-12-16T19:24:46.804Z,15.65
2022-12-16T19:27:41.175Z,15.62
2022-12-16T19:30:26.858Z,15.61
2022-12-16T19:33:11.853Z,15.58
2022-12-16T19:35:57.373Z,15.56
2022-12-16T19:38:42.486Z,15.54
2022-12-16T19:41:34.115Z,15.54
2022-12-16T19:44:19.140Z,15.52
2022-12-16T19:47:04.379Z,15.49
2022-12-16T19:49:49.414Z,15.48
2022-12-16T19:52:34.604Z,15.47
2022-12-16T19:55:19.692Z,15.45
2022-12-16T19:58:06.155Z,15.44
2022-12-16T20:00:51.104Z,15.41
2022-12-16T20:03:36.894Z,15.40
2022-12-16T20:06:23.552Z,15.38
2022-12-16T20:09:09.551Z,15.37
2022-12-16T20:11:55.205Z,15.35
2022-12-16T20:14:41.441Z,15.33
2022-12-16T20:17:26.622Z,15.32
2022-12-16T20:20:11.679Z,15.31
2022-12-16T20:22:56.702Z,15.29
2022-12-16T20:25:41.749Z,15.27
2022-12-16T20:28:26.653Z,15.25
2022-12-16T20:31:11.898Z,15.23
2022-12-16T20:34:02.684Z,15.22
2022-12-16T20:36:55.846Z,15.21
2022-12-16T20:39:42.489Z,15.19
2022-12-16T20:42:28.842Z,15.20
2022-12-16T20:45:13.778Z,15.20
2022-12-16T20:48:12.133Z,15.23
2022-12-16T20:50:57.246Z,15.28
2022-12-16T20:53:42.732Z,15.30
2022-12-16T20:56:28.030Z,15.33
2022-12-16T20:59:13.088Z,15.36
2022-12-16T21:02:22.092Z,15.40
2022-12-16T21:05:03.421Z,15.44
2022-12-16T21:07:48.651Z,15.47
2022-12-16T21:10:33.888Z,15.50
2022-12-16T21:13:26.131Z,15.55
2022-12-16T21:16:11.172Z,15.57
2022-12-16T21:18:56.076Z,15.60
2022-12-16T21:21:41.794Z,15.63
2022-12-16T21:24:37.467Z,15.66
2022-12-16T21:27:22.601Z,15.69
2022-12-16T21:30:07.787Z,15.72
2022-12-16T21:32:53.483Z,15.76
2022-12-16T21:35:38.987Z,15.77
2022-12-16T21:38:30.613Z,15.80
2022-12-16T21:41:16.247Z,15.82
2022-12-16T21:44:01.335Z,15.83
2022-12-16T21:46:46.328Z,15.86
2022-12-16T21:49:31.462Z,15.88
2022-12-16T21:52:16.551Z,15.89
2022-12-16T21:55:01.545Z,15.90
2022-12-16T21:57:51.017Z,15.89
2022-12-16T22:00:38.642Z,15.90
2022-12-16T22:03:23.807Z,15.89
2022-12-16T22:06:08.796Z,15.89
2022-12-16T22:08:54.613Z,15.88
2022-12-16T22:11:41.413Z,15.88
2022-12-16T22:14:26.350Z,15.87
2022-12-16T22:17:11.407Z,15.87
2022-12-16T22:19:56.544Z,15.86
2022-12-16T22:22:42.100Z,15.85
2022-12-16T22:25:27.777Z,15.87
2022-12-16T22:28:12.717Z,15.89
2022-12-16T22:30:57.872Z,15.91
2022-12-16T22:33:42.939Z,15.92
2022-12-16T22:36:29.650Z,15.94
2022-12-16T22:39:14.800Z,15.97
2022-12-16T22:41:59.704Z,16.00
2022-12-16T22:44:44.844Z,16.03
2022-12-16T22:47:29.796Z,16.07
2022-12-16T22:50:14.854Z,16.10
2022-12-16T22:52:59.903Z,16.14
2022-12-16T22:55:45.030Z,16.18
2022-12-16T22:58:30.594Z,16.22
2022-12-16T23:01:16.083Z,16.24
2022-12-16T23:04:01.674Z,16.26
2022-12-16T23:06:46.832Z,16.29
2022-12-16T23:09:31.888Z,16.31
2022-12-16T23:12:17.023Z,16.33
2022-12-16T23:15:02.016Z,16.37
2022-12-16T23:17:47.689Z,16.37
2022-12-16T23:20:32.781Z,16.39
2022-12-16T23:23:17.996Z,16.42
2022-12-16T23:26:13.129Z,16.43
2022-12-16T23:28:58.224Z,16.45
2022-12-16T23:31:43.299Z,16.46
2022-12-16T23:34:28.453Z,16.49
2022-12-16T23:37:13.369Z,16.49
2022-12-16T23:39:58.439Z,16.49
2022-12-16T23:42:43.555Z,16.49
2022-12-16T23:45:28.658Z,16.48
2022-12-16T23:48:20.423Z,16.47
2022-12-16T23:51:05.565Z,16.46
2022-12-16T23:53:50.509Z,16.46
2022-12-16T23:56:35.637Z,16.44
2022-12-16T23:59:20.639Z,16.44
